sensor_id;sensor_type;location;lat;lon;timestamp;P1;durP1;ratioP1;P2;durP2;ratioP2
19301;SDS011;9785;59.362;12.152;2023-03-24T00:00:57;25.20;;;3.23;;
19301;SDS011;9785;59.362;12.152;2023-03-24T00:03:29;24.80;;;4.40;;
19301;SDS011;9785;59.362;12.152;2023-03-24T00:06:02;21.73;;;3.23;;
19301;SDS011;9785;59.362;12.152;2023-03-24T00:08:34;19.03;;;2.97;;
19301;SDS011;9785;59.362;12.152;2023-03-24T00:11:07;22.80;;;2.93;;
19301;SDS011;9785;59.362;12.152;2023-03-24T00:13:40;23.47;;;3.13;;
19301;SDS011;9785;59.362;12.152;2023-03-24T00:16:11;22.90;;;2.70;;
19301;SDS011;9785;59.362;12.152;2023-03-24T00:18:45;25.80;;;3.30;;
19301;SDS011;9785;59.362;12.152;2023-03-24T00:21:20;15.17;;;2.57;;
19301;SDS011;9785;59.362;12.152;2023-03-24T00:23:51;22.53;;;3.47;;
19301;SDS011;9785;59.362;12.152;2023-03-24T00:26:21;18.43;;;2.87;;
19301;SDS011;9785;59.362;12.152;2023-03-24T00:28:52;14.10;;;2.43;;
19301;SDS011;9785;59.362;12.152;2023-03-24T00:31:21;17.10;;;2.73;;
19301;SDS011;9785;59.362;12.152;2023-03-24T00:33:51;18.53;;;2.57;;
19301;SDS011;9785;59.362;12.152;2023-03-24T00:36:20;18.43;;;2.53;;
19301;SDS011;9785;59.362;12.152;2023-03-24T00:38:50;16.03;;;2.97;;
19301;SDS011;9785;59.362;12.152;2023-03-24T00:41:19;11.93;;;2.23;;
19301;SDS011;9785;59.362;12.152;2023-03-24T00:43:52;16.33;;;2.87;;
19301;SDS011;9785;59.362;12.152;2023-03-24T00:46:26;13.10;;;2.40;;
19301;SDS011;9785;59.362;12.152;2023-03-24T00:48:58;9.97;;;2.23;;
19301;SDS011;9785;59.362;12.152;2023-03-24T00:51:33;12.20;;;2.13;;
19301;SDS011;9785;59.362;12.152;2023-03-24T00:54:03;9.97;;;2.17;;
19301;SDS011;9785;59.362;12.152;2023-03-24T00:56:34;11.60;;;1.90;;
19301;SDS011;9785;59.362;12.152;2023-03-24T00:59:08;12.90;;;3.07;;
19301;SDS011;9785;59.362;12.152;2023-03-24T01:01:39;12.17;;;2.10;;
19301;SDS011;9785;59.362;12.152;2023-03-24T01:04:09;9.20;;;1.80;;
19301;SDS011;9785;59.362;12.152;2023-03-24T01:06:38;11.33;;;2.07;;
19301;SDS011;9785;59.362;12.152;2023-03-24T01:09:07;9.43;;;1.60;;
19301;SDS011;9785;59.362;12.152;2023-03-24T01:11:39;9.43;;;1.73;;
19301;SDS011;9785;59.362;12.152;2023-03-24T01:14:09;12.37;;;1.90;;
19301;SDS011;9785;59.362;12.152;2023-03-24T01:16:40;10.63;;;1.67;;
19301;SDS011;9785;59.362;12.152;2023-03-24T01:19:09;12.70;;;2.00;;
19301;SDS011;9785;59.362;12.152;2023-03-24T01:21:37;10.03;;;1.70;;
19301;SDS011;9785;59.362;12.152;2023-03-24T01:24:08;11.73;;;1.50;;
19301;SDS011;9785;59.362;12.152;2023-03-24T01:26:39;9.07;;;1.87;;
19301;SDS011;9785;59.362;12.152;2023-03-24T01:29:09;10.93;;;1.50;;
19301;SDS011;9785;59.362;12.152;2023-03-24T01:31:37;9.77;;;1.70;;
19301;SDS011;9785;59.362;12.152;2023-03-24T01:34:06;10.17;;;1.67;;
19301;SDS011;9785;59.362;12.152;2023-03-24T01:36:35;11.17;;;2.07;;
19301;SDS011;9785;59.362;12.152;2023-03-24T01:39:04;16.50;;;2.10;;
19301;SDS011;9785;59.362;12.152;2023-03-24T01:41:34;17.60;;;2.87;;
19301;SDS011;9785;59.362;12.152;2023-03-24T01:46:48;18.50;;;2.90;;
19301;SDS011;9785;59.362;12.152;2023-03-24T01:49:18;20.87;;;3.17;;
19301;SDS011;9785;59.362;12.152;2023-03-24T01:51:51;15.30;;;2.77;;
19301;SDS011;9785;59.362;12.152;2023-03-24T01:54:25;21.80;;;3.03;;
19301;SDS011;9785;59.362;12.152;2023-03-24T01:56:55;21.83;;;4.83;;
19301;SDS011;9785;59.362;12.152;2023-03-24T01:59:25;21.67;;;3.83;;
19301;SDS011;9785;59.362;12.152;2023-03-24T02:01:56;35.00;;;4.17;;
19301;SDS011;9785;59.362;12.152;2023-03-24T02:04:29;27.77;;;3.73;;
19301;SDS011;9785;59.362;12.152;2023-03-24T02:07:00;25.87;;;4.67;;
19301;SDS011;9785;59.362;12.152;2023-03-24T02:09:32;26.17;;;4.03;;
19301;SDS011;9785;59.362;12.152;2023-03-24T02:12:00;34.43;;;5.87;;
19301;SDS011;9785;59.362;12.152;2023-03-24T02:14:29;26.03;;;4.20;;
19301;SDS011;9785;59.362;12.152;2023-03-24T02:17:11;29.97;;;3.70;;
19301;SDS011;9785;59.362;12.152;2023-03-24T02:22:49;42.27;;;4.60;;
19301;SDS011;9785;59.362;12.152;2023-03-24T02:28:25;40.67;;;5.03;;
19301;SDS011;9785;59.362;12.152;2023-03-24T02:31:12;31.20;;;4.13;;
19301;SDS011;9785;59.362;12.152;2023-03-24T02:34:09;21.83;;;4.03;;
19301;SDS011;9785;59.362;12.152;2023-03-24T02:42:37;42.93;;;5.80;;
19301;SDS011;9785;59.362;12.152;2023-03-24T02:45:15;35.60;;;4.40;;
19301;SDS011;9785;59.362;12.152;2023-03-24T02:47:51;32.90;;;4.63;;
19301;SDS011;9785;59.362;12.152;2023-03-24T02:50:24;36.57;;;4.87;;
19301;SDS011;9785;59.362;12.152;2023-03-24T02:53:04;33.87;;;4.90;;
19301;SDS011;9785;59.362;12.152;2023-03-24T02:55:38;34.70;;;4.20;;
19301;SDS011;9785;59.362;12.152;2023-03-24T02:58:12;39.20;;;4.67;;
19301;SDS011;9785;59.362;12.152;2023-03-24T03:00:44;39.30;;;5.33;;
19301;SDS011;9785;59.362;12.152;2023-03-24T03:03:16;35.47;;;4.80;;
19301;SDS011;9785;59.362;12.152;2023-03-24T03:05:52;37.97;;;4.33;;
19301;SDS011;9785;59.362;12.152;2023-03-24T03:08:25;39.63;;;4.53;;
19301;SDS011;9785;59.362;12.152;2023-03-24T03:10:59;38.23;;;4.70;;
19301;SDS011;9785;59.362;12.152;2023-03-24T03:13:33;27.97;;;4.53;;
19301;SDS011;9785;59.362;12.152;2023-03-24T03:16:08;32.40;;;4.40;;
19301;SDS011;9785;59.362;12.152;2023-03-24T03:18:40;36.47;;;3.80;;
19301;SDS011;9785;59.362;12.152;2023-03-24T03:21:11;33.63;;;3.87;;
19301;SDS011;9785;59.362;12.152;2023-03-24T03:23:43;22.53;;;3.73;;
19301;SDS011;9785;59.362;12.152;2023-03-24T03:26:15;39.43;;;3.83;;
19301;SDS011;9785;59.362;12.152;2023-03-24T03:28:49;24.53;;;3.83;;
19301;SDS011;9785;59.362;12.152;2023-03-24T03:31:26;27.70;;;4.13;;
19301;SDS011;9785;59.362;12.152;2023-03-24T03:33:59;24.90;;;3.97;;
19301;SDS011;9785;59.362;12.152;2023-03-24T03:36:32;26.53;;;3.50;;
19301;SDS011;9785;59.362;12.152;2023-03-24T03:39:04;29.03;;;4.20;;
19301;SDS011;9785;59.362;12.152;2023-03-24T03:41:34;32.43;;;4.73;;
19301;SDS011;9785;59.362;12.152;2023-03-24T03:44:04;49.17;;;4.17;;
19301;SDS011;9785;59.362;12.152;2023-03-24T03:46:33;45.37;;;4.23;;
19301;SDS011;9785;59.362;12.152;2023-03-24T03:49:03;42.90;;;5.13;;
19301;SDS011;9785;59.362;12.152;2023-03-24T03:51:32;31.13;;;4.60;;
19301;SDS011;9785;59.362;12.152;2023-03-24T03:54:01;20.00;;;3.33;;
19301;SDS011;9785;59.362;12.152;2023-03-24T03:56:32;22.43;;;3.87;;
19301;SDS011;9785;59.362;12.152;2023-03-24T03:59:01;26.47;;;3.90;;
19301;SDS011;9785;59.362;12.152;2023-03-24T04:01:32;27.77;;;4.07;;
19301;SDS011;9785;59.362;12.152;2023-03-24T04:04:16;24.57;;;3.83;;
19301;SDS011;9785;59.362;12.152;2023-03-24T04:06:54;13.47;;;3.13;;
19301;SDS011;9785;59.362;12.152;2023-03-24T04:09:28;34.80;;;3.90;;
19301;SDS011;9785;59.362;12.152;2023-03-24T04:12:03;29.33;;;4.00;;
19301;SDS011;9785;59.362;12.152;2023-03-24T04:14:40;17.73;;;2.90;;
19301;SDS011;9785;59.362;12.152;2023-03-24T04:17:13;31.13;;;3.70;;
19301;SDS011;9785;59.362;12.152;2023-03-24T04:19:49;25.53;;;3.90;;
19301;SDS011;9785;59.362;12.152;2023-03-24T04:22:23;19.97;;;3.27;;
19301;SDS011;9785;59.362;12.152;2023-03-24T04:24:53;21.27;;;3.57;;
19301;SDS011;9785;59.362;12.152;2023-03-24T04:27:24;20.10;;;3.70;;
19301;SDS011;9785;59.362;12.152;2023-03-24T04:29:59;24.37;;;3.73;;
19301;SDS011;9785;59.362;12.152;2023-03-24T04:32:34;17.07;;;3.40;;
19301;SDS011;9785;59.362;12.152;2023-03-24T04:35:09;25.63;;;3.80;;
19301;SDS011;9785;59.362;12.152;2023-03-24T04:37:39;16.60;;;3.13;;
19301;SDS011;9785;59.362;12.152;2023-03-24T04:40:09;23.00;;;3.50;;
19301;SDS011;9785;59.362;12.152;2023-03-24T04:42:41;20.63;;;3.60;;
19301;SDS011;9785;59.362;12.152;2023-03-24T04:45:11;19.30;;;3.23;;
19301;SDS011;9785;59.362;12.152;2023-03-24T04:47:44;26.53;;;3.93;;
19301;SDS011;9785;59.362;12.152;2023-03-24T04:50:25;15.00;;;3.00;;
19301;SDS011;9785;59.362;12.152;2023-03-24T04:52:57;27.50;;;3.87;;
19301;SDS011;9785;59.362;12.152;2023-03-24T04:55:44;21.83;;;3.53;;
19301;SDS011;9785;59.362;12.152;2023-03-24T04:58:19;20.67;;;3.33;;
19301;SDS011;9785;59.362;12.152;2023-03-24T05:00:49;26.80;;;3.73;;
19301;SDS011;9785;59.362;12.152;2023-03-24T05:03:22;27.87;;;3.63;;
19301;SDS011;9785;59.362;12.152;2023-03-24T05:05:51;29.53;;;4.57;;
19301;SDS011;9785;59.362;12.152;2023-03-24T05:08:20;23.60;;;3.63;;
19301;SDS011;9785;59.362;12.152;2023-03-24T05:10:48;28.20;;;3.97;;
19301;SDS011;9785;59.362;12.152;2023-03-24T05:13:17;19.23;;;3.70;;
19301;SDS011;9785;59.362;12.152;2023-03-24T05:15:46;23.40;;;3.80;;
19301;SDS011;9785;59.362;12.152;2023-03-24T05:18:15;30.83;;;3.70;;
19301;SDS011;9785;59.362;12.152;2023-03-24T05:20:48;22.20;;;3.30;;
19301;SDS011;9785;59.362;12.152;2023-03-24T05:23:20;12.53;;;3.30;;
19301;SDS011;9785;59.362;12.152;2023-03-24T05:25:50;20.00;;;3.13;;
19301;SDS011;9785;59.362;12.152;2023-03-24T05:28:19;15.67;;;3.20;;
19301;SDS011;9785;59.362;12.152;2023-03-24T05:30:48;10.93;;;2.77;;
19301;SDS011;9785;59.362;12.152;2023-03-24T05:33:16;16.23;;;2.90;;
19301;SDS011;9785;59.362;12.152;2023-03-24T05:35:45;9.37;;;3.00;;
19301;SDS011;9785;59.362;12.152;2023-03-24T05:38:15;30.33;;;3.87;;
19301;SDS011;9785;59.362;12.152;2023-03-24T05:40:44;17.53;;;2.90;;
19301;SDS011;9785;59.362;12.152;2023-03-24T05:43:12;15.23;;;2.93;;
19301;SDS011;9785;59.362;12.152;2023-03-24T05:45:42;17.80;;;3.53;;
19301;SDS011;9785;59.362;12.152;2023-03-24T05:48:12;12.13;;;3.07;;
19301;SDS011;9785;59.362;12.152;2023-03-24T05:50:41;17.23;;;3.07;;
19301;SDS011;9785;59.362;12.152;2023-03-24T05:53:13;19.80;;;2.83;;
19301;SDS011;9785;59.362;12.152;2023-03-24T05:55:43;16.33;;;3.17;;
19301;SDS011;9785;59.362;12.152;2023-03-24T05:58:12;17.73;;;3.40;;
19301;SDS011;9785;59.362;12.152;2023-03-24T06:00:41;11.93;;;2.70;;
19301;SDS011;9785;59.362;12.152;2023-03-24T06:03:10;17.07;;;3.30;;
19301;SDS011;9785;59.362;12.152;2023-03-24T06:05:43;13.50;;;2.90;;
19301;SDS011;9785;59.362;12.152;2023-03-24T06:08:13;14.00;;;3.30;;
19301;SDS011;9785;59.362;12.152;2023-03-24T06:10:43;18.07;;;3.03;;
19301;SDS011;9785;59.362;12.152;2023-03-24T06:13:13;10.13;;;2.70;;
19301;SDS011;9785;59.362;12.152;2023-03-24T06:15:42;12.97;;;3.03;;
19301;SDS011;9785;59.362;12.152;2023-03-24T06:18:12;11.93;;;2.50;;
19301;SDS011;9785;59.362;12.152;2023-03-24T06:20:44;15.70;;;2.70;;
19301;SDS011;9785;59.362;12.152;2023-03-24T06:23:16;13.00;;;3.23;;
19301;SDS011;9785;59.362;12.152;2023-03-24T06:25:52;7.57;;;2.07;;
19301;SDS011;9785;59.362;12.152;2023-03-24T06:28:24;9.37;;;2.47;;
19301;SDS011;9785;59.362;12.152;2023-03-24T06:30:57;8.53;;;1.90;;
19301;SDS011;9785;59.362;12.152;2023-03-24T06:33:26;11.27;;;2.10;;
19301;SDS011;9785;59.362;12.152;2023-03-24T06:35:57;10.73;;;2.33;;
19301;SDS011;9785;59.362;12.152;2023-03-24T06:38:28;9.23;;;2.10;;
19301;SDS011;9785;59.362;12.152;2023-03-24T06:41:00;8.53;;;2.03;;
19301;SDS011;9785;59.362;12.152;2023-03-24T06:43:31;7.40;;;2.00;;
19301;SDS011;9785;59.362;12.152;2023-03-24T06:46:01;114.23;;;41.50;;
19301;SDS011;9785;59.362;12.152;2023-03-24T06:48:30;19.40;;;10.70;;
19301;SDS011;9785;59.362;12.152;2023-03-24T06:50:59;10.90;;;7.77;;
19301;SDS011;9785;59.362;12.152;2023-03-24T06:53:31;21.77;;;15.83;;
19301;SDS011;9785;59.362;12.152;2023-03-24T06:56:07;10.93;;;5.17;;
19301;SDS011;9785;59.362;12.152;2023-03-24T06:58:38;6.80;;;4.63;;
19301;SDS011;9785;59.362;12.152;2023-03-24T07:01:07;8.23;;;3.67;;
19301;SDS011;9785;59.362;12.152;2023-03-24T07:03:39;4.10;;;2.00;;
19301;SDS011;9785;59.362;12.152;2023-03-24T07:06:09;4.87;;;1.80;;
19301;SDS011;9785;59.362;12.152;2023-03-24T07:08:38;4.93;;;2.70;;
19301;SDS011;9785;59.362;12.152;2023-03-24T07:11:08;3.53;;;1.50;;
19301;SDS011;9785;59.362;12.152;2023-03-24T07:13:36;3.77;;;3.47;;
19301;SDS011;9785;59.362;12.152;2023-03-24T07:16:06;5.37;;;3.23;;
19301;SDS011;9785;59.362;12.152;2023-03-24T07:18:35;5.97;;;3.70;;
19301;SDS011;9785;59.362;12.152;2023-03-24T07:21:08;4.43;;;3.07;;
19301;SDS011;9785;59.362;12.152;2023-03-24T07:23:37;5.50;;;4.83;;
19301;SDS011;9785;59.362;12.152;2023-03-24T07:26:06;1.90;;;1.80;;
19301;SDS011;9785;59.362;12.152;2023-03-24T07:28:38;2.37;;;2.10;;
19301;SDS011;9785;59.362;12.152;2023-03-24T07:31:07;11.07;;;9.97;;
19301;SDS011;9785;59.362;12.152;2023-03-24T07:33:41;6.73;;;6.13;;
19301;SDS011;9785;59.362;12.152;2023-03-24T07:36:10;1.30;;;1.20;;
19301;SDS011;9785;59.362;12.152;2023-03-24T07:38:39;1.27;;;1.20;;
19301;SDS011;9785;59.362;12.152;2023-03-24T07:41:08;2.13;;;1.40;;
19301;SDS011;9785;59.362;12.152;2023-03-24T07:43:41;6.93;;;4.80;;
19301;SDS011;9785;59.362;12.152;2023-03-24T07:46:11;2.20;;;2.00;;
19301;SDS011;9785;59.362;12.152;2023-03-24T07:48:40;2.83;;;2.50;;
19301;SDS011;9785;59.362;12.152;2023-03-24T07:51:09;1.30;;;1.00;;
19301;SDS011;9785;59.362;12.152;2023-03-24T07:53:39;1.37;;;1.27;;
19301;SDS011;9785;59.362;12.152;2023-03-24T07:56:13;4.03;;;2.10;;
19301;SDS011;9785;59.362;12.152;2023-03-24T07:58:47;2.23;;;1.73;;
19301;SDS011;9785;59.362;12.152;2023-03-24T08:01:17;3.90;;;3.60;;
19301;SDS011;9785;59.362;12.152;2023-03-24T08:03:47;2.13;;;1.50;;
19301;SDS011;9785;59.362;12.152;2023-03-24T08:06:20;3.10;;;2.90;;
19301;SDS011;9785;59.362;12.152;2023-03-24T08:08:51;2.67;;;1.23;;
19301;SDS011;9785;59.362;12.152;2023-03-24T08:11:20;2.10;;;1.83;;
19301;SDS011;9785;59.362;12.152;2023-03-24T08:13:50;4.00;;;2.10;;
19301;SDS011;9785;59.362;12.152;2023-03-24T08:16:19;1.37;;;1.27;;
19301;SDS011;9785;59.362;12.152;2023-03-24T08:18:49;3.77;;;3.33;;
19301;SDS011;9785;59.362;12.152;2023-03-24T08:21:19;3.50;;;2.23;;
19301;SDS011;9785;59.362;12.152;2023-03-24T08:23:49;6.87;;;4.77;;
19301;SDS011;9785;59.362;12.152;2023-03-24T08:26:20;7.30;;;3.13;;
19301;SDS011;9785;59.362;12.152;2023-03-24T08:28:56;5.77;;;2.50;;
19301;SDS011;9785;59.362;12.152;2023-03-24T08:31:30;4.77;;;1.60;;
19301;SDS011;9785;59.362;12.152;2023-03-24T08:34:01;3.60;;;1.93;;
19301;SDS011;9785;59.362;12.152;2023-03-24T08:36:32;2.23;;;1.77;;
19301;SDS011;9785;59.362;12.152;2023-03-24T08:39:05;4.50;;;2.27;;
19301;SDS011;9785;59.362;12.152;2023-03-24T08:41:37;5.33;;;4.20;;
19301;SDS011;9785;59.362;12.152;2023-03-24T08:44:11;5.77;;;3.93;;
19301;SDS011;9785;59.362;12.152;2023-03-24T08:46:41;4.70;;;2.37;;
19301;SDS011;9785;59.362;12.152;2023-03-24T08:49:11;2.70;;;2.50;;
19301;SDS011;9785;59.362;12.152;2023-03-24T08:51:44;4.77;;;2.57;;
19301;SDS011;9785;59.362;12.152;2023-03-24T08:54:15;2.00;;;1.80;;
19301;SDS011;9785;59.362;12.152;2023-03-24T08:56:45;2.80;;;1.40;;
19301;SDS011;9785;59.362;12.152;2023-03-24T08:59:15;2.50;;;1.63;;
19301;SDS011;9785;59.362;12.152;2023-03-24T09:01:48;2.87;;;1.33;;
19301;SDS011;9785;59.362;12.152;2023-03-24T09:04:19;4.03;;;1.70;;
19301;SDS011;9785;59.362;12.152;2023-03-24T09:06:47;3.03;;;1.33;;
19301;SDS011;9785;59.362;12.152;2023-03-24T09:09:19;6.53;;;1.77;;
19301;SDS011;9785;59.362;12.152;2023-03-24T09:11:47;4.63;;;1.60;;
19301;SDS011;9785;59.362;12.152;2023-03-24T09:14:17;2.50;;;1.80;;
19301;SDS011;9785;59.362;12.152;2023-03-24T09:16:47;6.07;;;1.97;;
19301;SDS011;9785;59.362;12.152;2023-03-24T09:19:19;4.07;;;1.80;;
19301;SDS011;9785;59.362;12.152;2023-03-24T09:21:49;3.87;;;2.03;;
19301;SDS011;9785;59.362;12.152;2023-03-24T09:24:18;4.07;;;1.80;;
19301;SDS011;9785;59.362;12.152;2023-03-24T09:26:47;2.90;;;1.67;;
19301;SDS011;9785;59.362;12.152;2023-03-24T09:29:18;7.23;;;2.47;;
19301;SDS011;9785;59.362;12.152;2023-03-24T09:31:47;6.47;;;2.30;;
19301;SDS011;9785;59.362;12.152;2023-03-24T09:34:17;3.27;;;1.60;;
19301;SDS011;9785;59.362;12.152;2023-03-24T09:36:46;6.00;;;2.23;;
19301;SDS011;9785;59.362;12.152;2023-03-24T09:39:15;9.70;;;2.20;;
19301;SDS011;9785;59.362;12.152;2023-03-24T09:41:48;5.10;;;2.00;;
19301;SDS011;9785;59.362;12.152;2023-03-24T09:44:26;4.17;;;2.10;;
19301;SDS011;9785;59.362;12.152;2023-03-24T09:46:59;5.10;;;2.00;;
19301;SDS011;9785;59.362;12.152;2023-03-24T09:49:31;6.47;;;1.93;;
19301;SDS011;9785;59.362;12.152;2023-03-24T09:52:03;3.83;;;1.80;;
19301;SDS011;9785;59.362;12.152;2023-03-24T09:54:35;4.30;;;1.90;;
19301;SDS011;9785;59.362;12.152;2023-03-24T09:57:09;5.60;;;2.10;;
19301;SDS011;9785;59.362;12.152;2023-03-24T09:59:46;2.97;;;1.90;;
19301;SDS011;9785;59.362;12.152;2023-03-24T10:02:18;5.50;;;2.30;;
19301;SDS011;9785;59.362;12.152;2023-03-24T10:04:51;4.13;;;2.10;;
19301;SDS011;9785;59.362;12.152;2023-03-24T10:07:23;6.03;;;2.27;;
19301;SDS011;9785;59.362;12.152;2023-03-24T10:09:54;8.17;;;2.73;;
19301;SDS011;9785;59.362;12.152;2023-03-24T10:12:29;5.67;;;2.30;;
19301;SDS011;9785;59.362;12.152;2023-03-24T10:15:05;4.27;;;2.47;;
19301;SDS011;9785;59.362;12.152;2023-03-24T10:17:38;5.33;;;2.37;;
19301;SDS011;9785;59.362;12.152;2023-03-24T10:20:15;3.83;;;2.43;;
19301;SDS011;9785;59.362;12.152;2023-03-24T10:22:50;5.00;;;2.47;;
19301;SDS011;9785;59.362;12.152;2023-03-24T10:25:28;5.87;;;2.10;;
19301;SDS011;9785;59.362;12.152;2023-03-24T10:28:02;6.07;;;2.30;;
19301;SDS011;9785;59.362;12.152;2023-03-24T10:30:35;5.43;;;2.13;;
19301;SDS011;9785;59.362;12.152;2023-03-24T10:33:12;6.97;;;2.20;;
19301;SDS011;9785;59.362;12.152;2023-03-24T10:35:50;5.47;;;1.80;;
19301;SDS011;9785;59.362;12.152;2023-03-24T10:38:24;5.73;;;2.20;;
19301;SDS011;9785;59.362;12.152;2023-03-24T10:40:54;3.50;;;2.30;;
19301;SDS011;9785;59.362;12.152;2023-03-24T10:43:23;3.87;;;2.10;;
19301;SDS011;9785;59.362;12.152;2023-03-24T10:45:56;3.47;;;1.90;;
19301;SDS011;9785;59.362;12.152;2023-03-24T10:48:33;4.10;;;1.70;;
19301;SDS011;9785;59.362;12.152;2023-03-24T10:51:04;5.07;;;1.90;;
19301;SDS011;9785;59.362;12.152;2023-03-24T10:53:33;2.07;;;1.43;;
19301;SDS011;9785;59.362;12.152;2023-03-24T10:56:03;2.63;;;1.73;;
19301;SDS011;9785;59.362;12.152;2023-03-24T10:58:35;3.27;;;1.70;;
19301;SDS011;9785;59.362;12.152;2023-03-24T11:01:06;3.27;;;1.70;;
19301;SDS011;9785;59.362;12.152;2023-03-24T11:03:37;3.13;;;1.60;;
19301;SDS011;9785;59.362;12.152;2023-03-24T11:06:06;2.07;;;1.53;;
19301;SDS011;9785;59.362;12.152;2023-03-24T11:08:36;2.43;;;1.40;;
19301;SDS011;9785;59.362;12.152;2023-03-24T11:11:19;1.37;;;1.30;;
19301;SDS011;9785;59.362;12.152;2023-03-24T11:13:55;1.30;;;1.20;;
19301;SDS011;9785;59.362;12.152;2023-03-24T11:16:30;1.40;;;1.30;;
19301;SDS011;9785;59.362;12.152;2023-03-24T11:19:02;1.77;;;1.10;;
19301;SDS011;9785;59.362;12.152;2023-03-24T11:21:33;2.57;;;1.10;;
19301;SDS011;9785;59.362;12.152;2023-03-24T11:24:07;1.57;;;1.20;;
19301;SDS011;9785;59.362;12.152;2023-03-24T11:26:40;3.43;;;1.10;;
19301;SDS011;9785;59.362;12.152;2023-03-24T11:29:17;1.10;;;1.00;;
19301;SDS011;9785;59.362;12.152;2023-03-24T11:31:52;1.00;;;0.90;;
19301;SDS011;9785;59.362;12.152;2023-03-24T11:34:24;0.93;;;0.70;;
19301;SDS011;9785;59.362;12.152;2023-03-24T11:37:02;0.90;;;0.90;;
19301;SDS011;9785;59.362;12.152;2023-03-24T11:39:33;1.10;;;1.07;;
19301;SDS011;9785;59.362;12.152;2023-03-24T11:42:04;1.30;;;0.97;;
19301;SDS011;9785;59.362;12.152;2023-03-24T11:44:45;0.90;;;0.80;;
19301;SDS011;9785;59.362;12.152;2023-03-24T11:47:17;0.93;;;0.90;;
19301;SDS011;9785;59.362;12.152;2023-03-24T11:49:50;0.90;;;0.90;;
19301;SDS011;9785;59.362;12.152;2023-03-24T11:52:20;3.43;;;1.00;;
19301;SDS011;9785;59.362;12.152;2023-03-24T11:54:54;0.80;;;0.80;;
19301;SDS011;9785;59.362;12.152;2023-03-24T11:57:26;0.90;;;0.90;;
19301;SDS011;9785;59.362;12.152;2023-03-24T12:00:03;0.70;;;0.63;;
19301;SDS011;9785;59.362;12.152;2023-03-24T12:02:41;1.03;;;0.77;;
19301;SDS011;9785;59.362;12.152;2023-03-24T12:05:20;0.70;;;0.70;;
19301;SDS011;9785;59.362;12.152;2023-03-24T12:07:59;0.67;;;0.63;;
19301;SDS011;9785;59.362;12.152;2023-03-24T12:10:34;0.60;;;0.60;;
19301;SDS011;9785;59.362;12.152;2023-03-24T12:13:06;1.50;;;0.60;;
19301;SDS011;9785;59.362;12.152;2023-03-24T12:15:55;0.70;;;0.70;;
19301;SDS011;9785;59.362;12.152;2023-03-24T12:21:22;0.50;;;0.50;;
19301;SDS011;9785;59.362;12.152;2023-03-24T12:23:56;1.50;;;0.60;;
19301;SDS011;9785;59.362;12.152;2023-03-24T12:26:26;0.60;;;0.60;;
19301;SDS011;9785;59.362;12.152;2023-03-24T12:28:57;0.50;;;0.50;;
19301;SDS011;9785;59.362;12.152;2023-03-24T12:31:44;1.33;;;0.50;;
19301;SDS011;9785;59.362;12.152;2023-03-24T12:34:27;1.70;;;0.50;;
19301;SDS011;9785;59.362;12.152;2023-03-24T12:37:03;0.97;;;0.50;;
19301;SDS011;9785;59.362;12.152;2023-03-24T12:39:38;0.30;;;0.30;;
19301;SDS011;9785;59.362;12.152;2023-03-24T12:42:13;0.50;;;0.50;;
19301;SDS011;9785;59.362;12.152;2023-03-24T12:45:02;0.50;;;0.50;;
19301;SDS011;9785;59.362;12.152;2023-03-24T12:47:42;0.50;;;0.43;;
19301;SDS011;9785;59.362;12.152;2023-03-24T12:50:19;0.20;;;0.20;;
19301;SDS011;9785;59.362;12.152;2023-03-24T12:52:55;1.23;;;0.50;;
19301;SDS011;9785;59.362;12.152;2023-03-24T12:55:29;1.40;;;0.60;;
19301;SDS011;9785;59.362;12.152;2023-03-24T12:58:02;0.40;;;0.40;;
19301;SDS011;9785;59.362;12.152;2023-03-24T13:00:33;0.30;;;0.30;;
19301;SDS011;9785;59.362;12.152;2023-03-24T13:03:09;0.40;;;0.40;;
19301;SDS011;9785;59.362;12.152;2023-03-24T13:05:39;0.30;;;0.30;;
19301;SDS011;9785;59.362;12.152;2023-03-24T13:08:13;0.80;;;0.53;;
19301;SDS011;9785;59.362;12.152;2023-03-24T13:10:43;0.60;;;0.40;;
19301;SDS011;9785;59.362;12.152;2023-03-24T13:13:14;0.30;;;0.30;;
19301;SDS011;9785;59.362;12.152;2023-03-24T13:15:44;2.60;;;0.60;;
19301;SDS011;9785;59.362;12.152;2023-03-24T13:18:23;1.80;;;0.50;;
19301;SDS011;9785;59.362;12.152;2023-03-24T13:20:58;1.57;;;0.40;;
19301;SDS011;9785;59.362;12.152;2023-03-24T13:23:36;1.00;;;0.40;;
19301;SDS011;9785;59.362;12.152;2023-03-24T13:26:10;0.60;;;0.50;;
19301;SDS011;9785;59.362;12.152;2023-03-24T13:28:46;0.50;;;0.50;;
19301;SDS011;9785;59.362;12.152;2023-03-24T13:31:18;0.30;;;0.30;;
19301;SDS011;9785;59.362;12.152;2023-03-24T13:33:49;0.40;;;0.37;;
19301;SDS011;9785;59.362;12.152;2023-03-24T13:36:26;0.77;;;0.30;;
19301;SDS011;9785;59.362;12.152;2023-03-24T13:38:59;0.50;;;0.33;;
19301;SDS011;9785;59.362;12.152;2023-03-24T13:41:31;1.10;;;0.60;;
19301;SDS011;9785;59.362;12.152;2023-03-24T13:44:01;0.50;;;0.50;;
19301;SDS011;9785;59.362;12.152;2023-03-24T13:46:31;0.43;;;0.43;;
19301;SDS011;9785;59.362;12.152;2023-03-24T13:49:04;0.57;;;0.57;;
19301;SDS011;9785;59.362;12.152;2023-03-24T13:51:35;0.90;;;0.90;;
19301;SDS011;9785;59.362;12.152;2023-03-24T13:54:14;0.93;;;0.87;;
19301;SDS011;9785;59.362;12.152;2023-03-24T13:56:47;0.70;;;0.70;;
19301;SDS011;9785;59.362;12.152;2023-03-24T13:59:24;0.80;;;0.80;;
19301;SDS011;9785;59.362;12.152;2023-03-24T14:05:03;0.53;;;0.53;;
19301;SDS011;9785;59.362;12.152;2023-03-24T14:07:41;0.50;;;0.50;;
19301;SDS011;9785;59.362;12.152;2023-03-24T14:10:27;0.70;;;0.70;;
19301;SDS011;9785;59.362;12.152;2023-03-24T14:13:00;1.97;;;0.60;;
19301;SDS011;9785;59.362;12.152;2023-03-24T14:15:29;1.07;;;0.37;;
19301;SDS011;9785;59.362;12.152;2023-03-24T14:18:13;0.60;;;0.60;;
19301;SDS011;9785;59.362;12.152;2023-03-24T14:20:58;0.50;;;0.50;;
19301;SDS011;9785;59.362;12.152;2023-03-24T14:23:30;0.40;;;0.40;;
19301;SDS011;9785;59.362;12.152;2023-03-24T14:26:05;0.47;;;0.47;;
19301;SDS011;9785;59.362;12.152;2023-03-24T14:28:36;0.50;;;0.50;;
19301;SDS011;9785;59.362;12.152;2023-03-24T14:31:09;0.50;;;0.50;;
19301;SDS011;9785;59.362;12.152;2023-03-24T14:33:43;0.60;;;0.60;;
19301;SDS011;9785;59.362;12.152;2023-03-24T14:36:28;0.80;;;0.80;;
19301;SDS011;9785;59.362;12.152;2023-03-24T14:39:05;2.20;;;0.50;;
19301;SDS011;9785;59.362;12.152;2023-03-24T14:41:38;0.70;;;0.70;;
19301;SDS011;9785;59.362;12.152;2023-03-24T14:44:10;0.80;;;0.80;;
19301;SDS011;9785;59.362;12.152;2023-03-24T14:46:41;0.90;;;0.80;;
19301;SDS011;9785;59.362;12.152;2023-03-24T14:49:21;0.90;;;0.90;;
19301;SDS011;9785;59.362;12.152;2023-03-24T14:51:56;1.50;;;1.40;;
19301;SDS011;9785;59.362;12.152;2023-03-24T14:54:28;0.70;;;0.70;;
19301;SDS011;9785;59.362;12.152;2023-03-24T14:57:00;0.67;;;0.67;;
19301;SDS011;9785;59.362;12.152;2023-03-24T14:59:34;1.23;;;1.23;;
19301;SDS011;9785;59.362;12.152;2023-03-24T15:02:21;1.30;;;1.30;;
19301;SDS011;9785;59.362;12.152;2023-03-24T15:07:40;0.90;;;0.90;;
19301;SDS011;9785;59.362;12.152;2023-03-24T15:10:12;1.07;;;0.90;;
19301;SDS011;9785;59.362;12.152;2023-03-24T15:12:43;0.67;;;0.67;;
19301;SDS011;9785;59.362;12.152;2023-03-24T15:15:13;0.50;;;0.50;;
19301;SDS011;9785;59.362;12.152;2023-03-24T15:17:42;0.40;;;0.40;;
19301;SDS011;9785;59.362;12.152;2023-03-24T15:20:18;0.40;;;0.40;;
19301;SDS011;9785;59.362;12.152;2023-03-24T15:22:50;0.37;;;0.37;;
19301;SDS011;9785;59.362;12.152;2023-03-24T15:25:23;1.50;;;0.50;;
19301;SDS011;9785;59.362;12.152;2023-03-24T15:27:55;0.40;;;0.40;;
19301;SDS011;9785;59.362;12.152;2023-03-24T15:30:27;0.17;;;0.17;;
19301;SDS011;9785;59.362;12.152;2023-03-24T15:32:58;0.20;;;0.20;;
19301;SDS011;9785;59.362;12.152;2023-03-24T15:35:28;0.20;;;0.20;;
19301;SDS011;9785;59.362;12.152;2023-03-24T15:38:03;0.20;;;0.20;;